• Join FlightAware (Why Join?)
  • Login
  • US Flag 
06:46AM EDT


 

Airport Tracker/Info


-or-


 

Live Flight TrackerFlight Track Log ✈ TRS423 ✈ 17-May-2013 ✈ KMCO - KPHL

Flight Track Log - Related Links

Times and Time Zones

All times are in EDT time to prevent confusion due to time zone crossing. See the TRS423 flight status page for this flight to view local times or setup timezone preferences in your user account.

Time Position Orientation Groundspeed Altitude Reporting Facility
EDT Latitude Longitude Course Direction KTS MPH feet Rate Location/Type
02:44PM 28.4000 -81.3000 180° South 181 208 500  Level Orlando TRACON
02:45PM 28.3833 -81.3000 180° South 175 201 1,500 1,500 Climbing Orlando TRACON
02:46PM 28.3333 -81.2667 150° Southeast 231 266 2,500 1,320 Climbing Orlando TRACON
02:47PM 28.3333 -81.2000 90° East 264 304 4,200 1,980 Climbing Orlando TRACON
02:48PM 28.4000 -81.1833 12° North 283 326 6,500 2,040 Climbing Orlando TRACON
02:50PM 28.5589 -81.2406 342° North 295 339 10,600 1,680 Climbing Jacksonville Center
02:51PM 28.6489 -81.2628 348° North 307 353 11,700 1,140 Climbing Jacksonville Center
02:52PM 28.7472 -81.2894 347° North 332 382 12,900 1,380 Climbing Jacksonville Center
02:53PM 28.8478 -81.3161 347° North 352 405 14,500 1,500 Climbing Jacksonville Center
02:54PM 28.9525 -81.3456 346° North 373 429 16,000 1,680 Climbing Jacksonville Center
02:55PM 29.0614 -81.3769 346° North 380 437 17,900 1,560 Climbing Jacksonville Center
02:56PM 29.1722 -81.3967 351° North 391 450 19,200 1,560 Climbing Jacksonville Center
02:57PM 29.2892 -81.4069 356° North 404 465 21,100 1,740 Climbing Jacksonville Center
02:58PM 29.4061 -81.4194 355° North 415 478 22,800 1,440 Climbing Jacksonville Center
02:59PM 29.5233 -81.4319 355° North 415 478 24,000 1,140 Climbing Jacksonville Center
03:00PM 29.6444 -81.4422 356° North 426 490 25,100 1,140 Climbing Jacksonville Center
03:01PM 29.7678 -81.4547 355° North 433 498 26,300 1,080 Climbing Jacksonville Center
03:02PM 29.8933 -81.4672 355° North 444 511 27,300 1,080 Climbing Jacksonville Center
03:03PM 30.0228 -81.4794 355° North 451 519 28,500 1,140 Climbing Jacksonville Center
03:04PM 30.1481 -81.4922 355° North 451 519 29,600 1,080 Climbing Jacksonville Center
03:05PM 30.2778 -81.5047 355° North 456 525 30,700 1,140 Climbing Jacksonville Center
03:06PM 30.4050 -81.5053 360° North 456 525 31,900 1,080 Climbing Jacksonville Center
03:07PM 30.5322 -81.4939 North 461 531 32,900 540 Climbing Jacksonville Center
03:08PM 30.6597 -81.4847 North 456 525 33,000  Climbing Jacksonville Center
03:09PM 30.7847 -81.4756 North 456 525 33,000  Level Jacksonville Center
03:10PM 30.9119 -81.4664 North 456 525 33,000  Level Jacksonville Center
03:11PM 31.0372 -81.4547 North 456 525 33,000  Level Jacksonville Center
03:12PM 31.1603 -81.4431 North 444 511 33,000  Level Jacksonville Center
03:13PM 31.2853 -81.4292 North 451 519 33,000  Level Jacksonville Center
03:14PM 31.4081 -81.3956 13° North 446 513 33,000  Level Jacksonville Center
03:15PM 31.5228 -81.3669 12° North 455 524 33,000  Level Jacksonville Center
03:16PM 31.6581 -81.3306 13° North 448 516 33,000  Level Jacksonville Center
03:17PM 31.7764 -81.2797 20° North 446 513 33,000  Level Jacksonville Center
03:18PM 31.8628 -81.1875 42° Northeast 453 521 33,000 -60 Level Jacksonville Center
03:19PM 31.9719 -81.0778 40° Northeast 463 533 32,900  Descending Jacksonville Center
03:20PM 32.0603 -80.9878 41° Northeast 463 533 33,000  Climbing Jacksonville Center
03:21PM 32.1672 -80.8825 40° Northeast 458 527 33,000  Level Jacksonville Center
03:22PM 32.2639 -80.7847 41° Northeast 458 527 33,000 -60 Level Jacksonville Center
03:23PM 32.3581 -80.6842 42° Northeast 456 525 32,900 -60 Descending Jacksonville Center
03:24PM 32.4544 -80.5858 41° Northeast 451 519 32,900  Level Jacksonville Center
03:25PM 32.5528 -80.4847 41° Northeast 457 526 32,900  Level Jacksonville Center
03:26PM 32.6469 -80.3858 41° Northeast 452 520 33,000  Climbing Jacksonville Center
03:27PM 32.7431 -80.2869 41° Northeast 452 520 32,900 -60 Descending Jacksonville Center
03:28PM 32.8267 -80.1956 43° Northeast 452 520 32,900  Level Jacksonville Center
03:29PM 32.9225 -80.0936 42° Northeast 452 520 32,900  Level Jacksonville Center
03:30PM 33.0206 -79.9942 40° Northeast 452 520 32,900  Level Jacksonville Center
03:31PM 33.1164 -79.8967 40° Northeast 452 520 32,900  Level Jacksonville Center
03:32PM 33.2119 -79.7967 41° Northeast 452 520 32,900  Level Jacksonville Center
03:33PM 33.3056 -79.6989 41° Northeast 452 520 33,000  Climbing Jacksonville Center
03:34PM 33.4011 -79.5986 41° Northeast 452 520 32,900 -60 Descending Jacksonville Center
03:35PM 33.4964 -79.4953 42° Northeast 452 520 32,900  Level Jacksonville Center
03:36PM 33.5939 -79.3919 41° Northeast 452 520 32,900  Level Jacksonville Center
03:37PM 33.6869 -79.2908 42° Northeast 452 520 32,900  Level Jacksonville Center
03:38PM 33.7858 -79.1794 43° Northeast 447 514 32,900  Level Jacksonville Center
03:39PM 33.8831 -79.0803 40° Northeast 453 521 32,900  Level Jacksonville Center
03:40PM 33.9781 -78.9758 42° Northeast 453 521 32,900  Level Jacksonville Center
03:41PM 34.0750 -78.8789 40° Northeast 453 521 32,900  Level Jacksonville Center
03:43PM 34.2717 -78.6856 39° Northeast 452 520 32,900  Level Washington Center
03:44PM 34.3700 -78.5886 39° Northeast 452 520 32,900  Level Washington Center
03:45PM 34.4686 -78.4889 40° Northeast 452 520 32,900  Level Washington Center
03:46PM 34.5669 -78.3889 40° Northeast 457 526 32,900  Level Washington Center
03:47PM 34.6650 -78.2914 39° Northeast 457 526 32,900  Level Washington Center
03:48PM 34.7589 -78.1958 40° Northeast 452 520 32,900  Level Washington Center
03:49PM 34.8444 -78.1000 43° Northeast 452 520 33,000  Climbing Washington Center
03:50PM 34.9383 -78.0014 41° Northeast 447 514 33,000  Level Washington Center
03:51PM 35.0342 -77.9053 39° Northeast 447 514 33,000  Level Washington Center
03:52PM 35.1300 -77.8067 40° Northeast 442 509 33,000  Level Washington Center
03:53PM 35.2358 -77.7231 33° Northeast 442 509 33,000  Level Washington Center
03:54PM 35.3414 -77.6419 32° Northeast 442 509 33,000  Level Washington Center
03:55PM 35.4472 -77.5631 31° Northeast 442 509 33,000  Level Washington Center
03:56PM 35.5633 -77.4739 32° Northeast 442 509 33,000  Level Washington Center
03:57PM 35.6689 -77.3919 32° Northeast 442 509 33,000  Level Washington Center
03:58PM 35.7744 -77.3100 32° Northeast 437 503 33,000  Level Washington Center
03:59PM 35.8800 -77.2275 32° Northeast 437 503 33,000  Level Washington Center
04:00PM 35.9853 -77.1475 32° Northeast 437 503 33,000 -60 Level Washington Center
04:01PM 36.0781 -77.0722 33° Northeast 437 503 32,900 -420 Descending Washington Center
04:02PM 36.1833 -76.9867 33° Northeast 437 503 32,200 -780 Descending Washington Center
04:03PM 36.2886 -76.9061 32° Northeast 437 503 31,400 -780 Descending Washington Center
04:04PM 36.3981 -76.8178 33° Northeast 447 514 30,700 -720 Descending Washington Center
04:05PM 36.5094 -76.7317 32° Northeast 459 528 30,000 -780 Descending Washington Center
04:06PM 36.6189 -76.6453 32° Northeast 459 528 29,200 -840 Descending Washington Center
04:07PM 36.7406 -76.5431 34° Northeast 464 534 28,400 -780 Descending Washington Center
04:08PM 36.8478 -76.4589 32° Northeast 464 534 27,700 -780 Descending Washington Center
04:09PM 36.9547 -76.3689 34° Northeast 464 534 26,900 -780 Descending Washington Center
04:10PM 37.0617 -76.2842 32° Northeast 459 528 26,200 -780 Descending Washington Center
04:11PM 37.1642 -76.2017 33° Northeast 459 528 25,400 -600 Descending Washington Center
04:12PM 37.2711 -76.1217 31° Northeast 449 517 25,000 -300 Descending Washington Center
04:13PM 37.3694 -76.0361 35° Northeast 439 505 24,900 -480 Descending Washington Center
04:14PM 37.4739 -75.9531 32° Northeast 434 499 24,100 -300 Descending Washington Center
04:16PM 37.6786 -75.7886 32° Northeast 434 499 24,000 -120 Descending Washington Center
04:17PM 37.7789 -75.6969 36° Northeast 439 505 23,900 -60 Descending Washington Center
04:18PM 37.8811 -75.6156 32° Northeast 439 505 23,900 -540 Level Washington Center
04:19PM 37.9856 -75.5311 32° Northeast 434 499 22,900 -1,020 Descending Washington Center
04:20PM 38.0856 -75.4519 32° Northeast 434 499 21,900 -1,020 Descending Washington Center
04:21PM 38.1875 -75.3856 27° Northeast 420 483 20,900 -1,020 Descending Washington Center
04:22PM 38.2833 -75.3192 29° Northeast 408 470 19,900 -960 Descending Washington Center
04:23PM 38.3750 -75.2633 26° Northeast 402 463 19,000 -960 Descending Washington Center
04:24PM 38.4747 -75.2044 25° Northeast 402 463 18,000 -1,080 Descending Washington Center
04:25PM 38.5706 -75.1403 28° Northeast 397 457 16,900 -1,560 Descending Washington Center
04:26PM 38.6661 -75.0892 23° Northeast 383 441 14,900 -1,380 Descending Washington Center
04:27PM 38.7642 -75.0778 North 360 414 14,200 -900 Descending Washington Center
04:28PM 38.8600 -75.0611 North 355 409 13,200 -1,020 Descending Washington Center
04:29PM 38.9558 -75.0497 North 350 403 12,200 -1,080 Descending Washington Center
04:30PM 39.0475 -75.0383 North 343 395 11,100 -1,080 Descending Washington Center
04:31PM 39.1267 -75.0244 North 315 362 10,100 -840 Descending Washington Center
04:32PM 39.2667 -75.0000 North 277 319 9,000 -480 Descending Philadelphia TRACON
04:33PM 39.3333 -75.0000 360° North 278 320 9,000 -180 Level Philadelphia TRACON
04:34PM 39.4167 -74.9833 North 277 319 8,700 -840 Descending Philadelphia TRACON
04:36PM 39.5000 -74.9667 North 272 313 7,300 -840 Descending Philadelphia TRACON
04:37PM 39.5667 -74.9833 349° North 250 288 7,000 -180 Descending Philadelphia TRACON
04:38PM 39.6167 -75.0333 322° Northwest 253 291 7,000  Level Philadelphia TRACON
04:39PM 39.6833 -75.0667 339° North 261 300 7,000  Level Philadelphia TRACON
04:40PM 39.7500 -75.0833 349° North 231 266 7,000 -60 Level Philadelphia TRACON
04:41PM 39.8000 -75.0667 14° North 202 232 6,900 -720 Descending Philadelphia TRACON
04:42PM 39.8333 -75.0000 57° Northeast 223 257 5,600 -1,560 Descending Philadelphia TRACON
04:43PM 39.8833 -74.9667 27° Northeast 192 221 3,700 -1,320 Descending Philadelphia TRACON
04:44PM 39.9167 -75.0167 311° West 203 234 3,000 -780 Descending Philadelphia TRACON
04:45PM 39.9000 -75.0833 252° West 183 211 2,300 -780 Descending Philadelphia TRACON
04:46PM 39.8833 -75.1500 252° West 143 165 1,300 -840 Descending Philadelphia TRACON
04:46PM 39.8833 -75.1833 270° West 142 163 700 -900 Descending Philadelphia TRACON
04:48PM 39.8667 -75.2333 254° West  Level FlightAware Approximate
04:55PM 39.8722 -75.2409 254° West  Level Estimated
04:56PM 39.8722 -75.2409 254° West  Level Estimated